Time;durP1;ratioP1;P1;durP2;ratioP2;P2;SDS_P1;SDS_P2;PMS_P1;PMS_P2;Temp;Humidity;BMP_temperature;BMP_pressure;BME280_temperature;BME280_humidity;BME280_pressure;Samples;Min_cycle;Max_cycle;Signal;HPM_P1;HPM_P2
2022/01/11 00:00:48;;;;;;;;;;;;;;;0.07;100.00;102920.47;5067971;28;20265;-81
2022/01/11 00:03:15;;;;;;;;;;;;;;;0.02;100.00;102931.97;5070998;28;19920;-83
2022/01/11 00:05:51;;;;;;;;;;;;;;;0.08;100.00;102930.06;5072348;28;19950;-83
2022/01/11 00:08:18;;;;;;;;;;;;;;;0.10;100.00;102921.72;5089214;28;19942;-83
2022/01/11 00:10:49;;;;;;;;;;;;;;;0.14;100.00;102925.56;5076448;28;19921;-81
2022/01/11 00:13:23;;;;;;;;;;;;;;;0.03;100.00;102923.47;5078837;28;19904;-83
2022/01/11 00:15:48;;;;;;;;;;;;;;;0.00;100.00;102924.06;5069318;28;20001;-82
2022/01/11 00:18:15;;;;;;;;;;;;;;;0.03;100.00;102923.47;5066727;28;19920;-81
2022/01/11 00:20:41;;;;;;;;;;;;;;;0.03;100.00;102915.69;5063725;28;20015;-80
2022/01/11 00:25:39;;;;;;;;;;;;;;;0.08;100.00;102925.81;5082028;28;19925;-82
2022/01/11 00:28:05;;;;;;;;;;;;;;;0.04;100.00;102930.50;5064211;28;19920;-82
2022/01/11 00:30:36;;;;;;;;;;;;;;;-0.03;100.00;102934.09;5066937;28;19980;-82
2022/01/11 00:33:05;;;;;;;;;;;;;;;-0.04;100.00;102927.97;5066276;28;19920;-81
2022/01/11 00:35:42;;;;;;;;;;;;;;;0.02;100.00;102930.31;5066764;28;19947;-82
2022/01/11 00:38:08;;;;;;;;;;;;;;;-0.01;100.00;102951.63;5051134;28;19978;-83
2022/01/11 00:40:34;;;;;;;;;;;;;;;0.07;100.00;102946.38;5063296;28;19920;-82
2022/01/11 00:43:04;;;;;;;;;;;;;;;0.04;100.00;102956.41;5065430;28;19932;-83
2022/01/11 00:45:30;;;;;;;;;;;;;;;0.09;100.00;102955.25;5066562;28;19920;-82
2022/01/11 00:47:55;;;;;;;;;;;;;;;0.10;100.00;102963.19;5070022;28;20652;-82
2022/01/11 00:50:21;;;;;;;;;;;;;;;0.14;100.00;102948.88;5069093;28;19942;-81
2022/01/11 00:52:46;;;;;;;;;;;;;;;0.15;100.00;102955.91;5068679;28;19920;-83
2022/01/11 00:55:12;;;;;;;;;;;;;;;0.15;100.00;102943.88;5068315;28;19924;-83
2022/01/11 00:57:37;;;;;;;;;;;;;;;0.13;100.00;102953.16;5066446;28;19928;-83
2022/01/11 01:00:07;;;;;;;;;;;;;;;0.12;100.00;102947.81;5065697;28;19960;-83
2022/01/11 01:02:44;;;;;;;;;;;;;;;0.14;100.00;102954.06;5066159;28;19932;-82
2022/01/11 01:05:09;;;;;;;;;;;;;;;0.14;100.00;102949.84;5064719;28;19921;-81
2022/01/11 01:07:35;;;;;;;;;;;;;;;0.09;100.00;102950.06;5064024;28;19931;-83
2022/01/11 01:12:25;;;;;;;;;;;;;;;0.11;100.00;102944.31;5083745;28;19924;-83
2022/01/11 01:14:51;;;;;;;;;;;;;;;0.13;100.00;102936.72;5066177;28;19920;-81
2022/01/11 01:17:16;;;;;;;;;;;;;;;0.15;100.00;102937.78;5061836;28;19920;-81
2022/01/11 01:19:41;;;;;;;;;;;;;;;0.18;100.00;102935.53;5065632;28;19974;-83
2022/01/11 01:22:06;;;;;;;;;;;;;;;0.12;100.00;102937.44;5064228;28;19921;-83
2022/01/11 01:24:32;;;;;;;;;;;;;;;0.15;100.00;102940.38;5067179;28;20265;-81
2022/01/11 01:26:57;;;;;;;;;;;;;;;0.14;100.00;102943.69;5068362;28;19950;-81
2022/01/11 01:29:22;;;;;;;;;;;;;;;0.12;100.00;102942.63;5070453;28;19952;-82
2022/01/11 01:31:47;;;;;;;;;;;;;;;0.17;100.00;102942.41;5072963;28;19946;-81
2022/01/11 01:34:13;;;;;;;;;;;;;;;0.23;100.00;102939.53;5072080;28;19921;-81
2022/01/11 01:36:38;;;;;;;;;;;;;;;0.25;100.00;102951.03;5070333;28;19934;-82
2022/01/11 01:39:04;;;;;;;;;;;;;;;0.25;100.00;102942.31;5070121;28;19921;-81
2022/01/11 01:41:29;;;;;;;;;;;;;;;0.23;100.00;102955.09;5069962;28;19921;-81
2022/01/11 01:43:56;;;;;;;;;;;;;;;0.30;100.00;102949.84;5068240;28;19947;-81
2022/01/11 01:46:22;;;;;;;;;;;;;;;0.35;100.00;102948.69;5070040;28;19927;-81
2022/01/11 01:48:47;;;;;;;;;;;;;;;0.34;100.00;102956.28;5073474;28;19948;-81
2022/01/11 01:51:13;;;;;;;;;;;;;;;0.37;100.00;102956.63;5070796;28;19976;-81
2022/01/11 01:53:45;;;;;;;;;;;;;;;0.36;100.00;102949.63;5072049;28;19921;-81
2022/01/11 01:56:11;;;;;;;;;;;;;;;0.29;100.00;102955.78;5072878;28;19916;-81
2022/01/11 01:58:37;;;;;;;;;;;;;;;0.40;100.00;102961.25;5072116;28;19925;-82
2022/01/11 02:01:04;;;;;;;;;;;;;;;0.30;100.00;102960.22;5087363;28;19920;-81
2022/01/11 02:03:39;;;;;;;;;;;;;;;0.29;100.00;102960.06;5068971;28;19924;-82
2022/01/11 02:06:09;;;;;;;;;;;;;;;0.27;100.00;102967.66;5065167;28;20382;-81
2022/01/11 02:08:34;;;;;;;;;;;;;;;0.25;100.00;102953.63;5067833;28;19931;-81
2022/01/11 02:11:00;;;;;;;;;;;;;;;0.24;100.00;102961.22;5088505;28;20287;-82
2022/01/11 02:13:26;;;;;;;;;;;;;;;0.20;100.00;102959.03;5064467;28;19947;-81
2022/01/11 02:15:53;;;;;;;;;;;;;;;0.20;100.00;102959.03;5068530;28;19943;-82
2022/01/11 02:18:21;;;;;;;;;;;;;;;0.17;100.00;102962.19;5065470;28;19924;-83
2022/01/11 02:20:47;;;;;;;;;;;;;;;0.15;100.00;102956.84;5067983;28;20039;-81
2022/01/11 02:23:13;;;;;;;;;;;;;;;0.10;100.00;102958.00;5066921;28;20356;-82
2022/01/11 02:25:39;;;;;;;;;;;;;;;0.10;100.00;102952.81;5068267;28;19920;-82
2022/01/11 02:28:05;;;;;;;;;;;;;;;0.12;100.00;102955.59;5068801;28;20429;-82
2022/01/11 02:30:33;;;;;;;;;;;;;;;0.12;100.00;102956.50;5067223;28;19921;-80
2022/01/11 02:32:59;;;;;;;;;;;;;;;0.16;100.00;102962.97;5067370;28;19921;-82
2022/01/11 02:35:25;;;;;;;;;;;;;;;0.21;100.00;102964.38;5067132;28;19920;-80
2022/01/11 02:37:50;;;;;;;;;;;;;;;0.15;100.00;102956.84;5082716;28;20372;-81
2022/01/11 02:40:17;;;;;;;;;;;;;;;0.16;100.00;102947.41;5049796;28;19939;-80
2022/01/11 02:42:43;;;;;;;;;;;;;;;0.16;100.00;102952.59;5071046;28;20468;-82
2022/01/11 02:45:12;;;;;;;;;;;;;;;0.14;100.00;102952.41;5070680;28;20414;-82
2022/01/11 02:47:38;;;;;;;;;;;;;;;0.19;100.00;102942.56;5069071;28;19989;-81
2022/01/11 02:50:03;;;;;;;;;;;;;;;0.17;100.00;102947.59;5068485;28;20349;-81
2022/01/11 02:52:28;;;;;;;;;;;;;;;0.18;100.00;102940.72;5070530;28;19924;-82
2022/01/11 02:54:54;;;;;;;;;;;;;;;0.21;100.00;102941.06;5069830;28;19935;-81
2022/01/11 02:57:19;;;;;;;;;;;;;;;0.24;100.00;102949.19;5070603;28;19928;-82
2022/01/11 02:59:44;;;;;;;;;;;;;;;0.26;100.00;102941.56;5088295;28;19947;-81
2022/01/11 03:02:10;;;;;;;;;;;;;;;0.26;100.00;102942.47;5068264;28;19988;-80
2022/01/11 03:04:35;;;;;;;;;;;;;;;0.20;100.00;102940.88;5068486;28;20643;-82
2022/01/11 03:07:00;;;;;;;;;;;;;;;0.19;100.00;102937.38;5083956;28;19921;-81
2022/01/11 03:09:29;;;;;;;;;;;;;;;0.23;100.00;102943.81;5067891;28;19924;-81
2022/01/11 03:11:56;;;;;;;;;;;;;;;0.18;100.00;102949.41;5067956;28;19920;-83
2022/01/11 03:14:21;;;;;;;;;;;;;;;0.19;100.00;102947.75;5066367;28;19924;-82
2022/01/11 03:16:46;;;;;;;;;;;;;;;0.20;100.00;102952.16;5069416;28;19933;-81
2022/01/11 03:19:11;;;;;;;;;;;;;;;0.23;100.00;102962.88;5088041;28;19920;-82
2022/01/11 03:21:36;;;;;;;;;;;;;;;0.22;100.00;102963.66;5068500;28;20367;-81
2022/01/11 03:24:06;;;;;;;;;;;;;;;0.21;100.00;102977.34;5066300;28;20249;-81
2022/01/11 03:26:31;;;;;;;;;;;;;;;0.18;100.00;102970.13;5082310;28;20322;-81
2022/01/11 03:28:56;;;;;;;;;;;;;;;0.16;100.00;102971.63;5049923;28;19928;-81
2022/01/11 03:31:23;;;;;;;;;;;;;;;0.15;100.00;102974.06;5081376;28;20387;-81
2022/01/11 03:33:57;;;;;;;;;;;;;;;0.19;100.00;102968.47;5081964;28;19924;-81
2022/01/11 03:36:22;;;;;;;;;;;;;;;0.16;100.00;102958.69;5063452;28;20049;-81
2022/01/11 03:38:47;;;;;;;;;;;;;;;0.16;100.00;102961.28;5067511;28;19928;-82
2022/01/11 03:41:13;;;;;;;;;;;;;;;0.17;100.00;102955.34;5069772;28;19943;-81
2022/01/11 03:43:40;;;;;;;;;;;;;;;0.12;100.00;102947.81;5068677;28;19960;-82
2022/01/11 03:46:05;;;;;;;;;;;;;;;0.15;100.00;102937.78;5070072;28;19987;-81
2022/01/11 03:48:30;;;;;;;;;;;;;;;0.10;100.00;102936.38;5066115;28;19952;-81
2022/01/11 03:50:56;;;;;;;;;;;;;;;0.10;100.00;102936.38;5067071;28;19916;-82
2022/01/11 03:53:26;;;;;;;;;;;;;;;0.07;100.00;102933.44;5066856;28;19942;-82
2022/01/11 03:58:17;;;;;;;;;;;;;;;0.03;100.00;102932.16;5085069;28;19987;-80
2022/01/11 04:00:43;;;;;;;;;;;;;;;0.02;100.00;102934.56;5068112;28;20572;-82
2022/01/11 04:03:13;;;;;;;;;;;;;;;0.04;100.00;102940.84;5065580;28;19921;-81
2022/01/11 04:05:41;;;;;;;;;;;;;;;0.03;100.00;102939.00;5085042;28;19928;-83
2022/01/11 04:08:06;;;;;;;;;;;;;;;0.03;100.00;102937.31;5081595;28;20333;-83
2022/01/11 04:10:32;;;;;;;;;;;;;;;0.01;100.00;102923.28;5065239;28;19942;-83
2022/01/11 04:12:57;;;;;;;;;;;;;;;0.04;100.00;102927.91;5068798;28;19951;-82
2022/01/11 04:15:22;;;;;;;;;;;;;;;-0.02;100.00;102933.31;5066705;28;19942;-82
2022/01/11 04:17:47;;;;;;;;;;;;;;;-0.01;100.00;102937.75;5083629;28;19952;-81
2022/01/11 04:20:14;;;;;;;;;;;;;;;-0.04;100.00;102940.91;5066192;28;19979;-82
2022/01/11 04:22:41;;;;;;;;;;;;;;;-0.03;100.00;102947.94;5084031;28;20406;-83
2022/01/11 04:25:06;;;;;;;;;;;;;;;-0.04;100.00;102938.31;5082851;28;19920;-82
2022/01/11 04:27:32;;;;;;;;;;;;;;;-0.03;100.00;102935.00;5064942;28;19920;-83
2022/01/11 04:29:57;;;;;;;;;;;;;;;-0.07;100.00;102932.78;5066097;28;19931;-84
2022/01/11 04:32:24;;;;;;;;;;;;;;;-0.10;100.00;102937.63;5088728;28;19925;-82
2022/01/11 04:34:49;;;;;;;;;;;;;;;-0.13;100.00;102945.06;5069777;28;19958;-82
2022/01/11 04:37:14;;;;;;;;;;;;;;;-0.14;100.00;102947.47;5068962;28;20380;-82
2022/01/11 04:39:40;;;;;;;;;;;;;;;-0.13;100.00;102952.81;5069037;28;20276;-81
2022/01/11 04:42:05;;;;;;;;;;;;;;;-0.12;100.00;102957.28;5069343;28;19921;-82
2022/01/11 04:44:30;;;;;;;;;;;;;;;-0.07;100.00;102952.59;5069172;28;19920;-82
2022/01/11 04:46:56;;;;;;;;;;;;;;;-0.06;100.00;102944.09;5067539;28;19927;-82
2022/01/11 04:49:21;;;;;;;;;;;;;;;-0.09;100.00;102954.13;5061405;28;19921;-82
2022/01/11 04:51:50;;;;;;;;;;;;;;;-0.11;100.00;102951.34;5060461;28;19947;-81
2022/01/11 04:54:17;;;;;;;;;;;;;;;-0.11;100.00;102953.00;5063364;28;19920;-82
2022/01/11 04:56:43;;;;;;;;;;;;;;;-0.11;100.00;102956.53;5062764;28;19925;-82
2022/01/11 04:59:08;;;;;;;;;;;;;;;-0.09;100.00;102948.94;5047530;28;19954;-82
2022/01/11 05:01:35;;;;;;;;;;;;;;;-0.06;100.00;102949.28;5065504;28;19928;-82
2022/01/11 05:04:02;;;;;;;;;;;;;;;-0.08;100.00;102951.69;5066036;28;19921;-82
2022/01/11 05:06:27;;;;;;;;;;;;;;;-0.06;100.00;102945.00;5063180;28;20533;-82
2022/01/11 05:08:53;;;;;;;;;;;;;;;-0.06;100.00;102947.59;5064944;28;19935;-82
2022/01/11 05:11:18;;;;;;;;;;;;;;;-0.04;100.00;102956.44;5066901;28;20011;-83
2022/01/11 05:14:03;;;;;;;;;;;;;;;-0.04;100.00;102950.34;5064925;28;19994;-82
2022/01/11 05:16:29;;;;;;;;;;;;;;;-0.04;100.00;102956.44;5099265;28;19924;-81
2022/01/11 05:18:54;;;;;;;;;;;;;;;-0.06;100.00;102955.38;5097764;28;19967;-82
2022/01/11 05:21:19;;;;;;;;;;;;;;;-0.01;100.00;102955.88;5064630;28;19999;-82
2022/01/11 05:23:45;;;;;;;;;;;;;;;-0.04;100.00;102948.69;5095974;28;20003;-82
2022/01/11 05:26:10;;;;;;;;;;;;;;;-0.03;100.00;102950.53;5066975;28;19998;-80
2022/01/11 05:28:36;;;;;;;;;;;;;;;-0.04;100.00;102961.63;5065210;28;19924;-81
2022/01/11 05:31:02;;;;;;;;;;;;;;;0.00;100.00;102960.34;5063293;28;19927;-80
2022/01/11 05:33:31;;;;;;;;;;;;;;;0.00;100.00;102968.09;5062996;28;19921;-81
2022/01/11 05:35:56;;;;;;;;;;;;;;;0.01;100.00;102963.81;5063557;28;19974;-80
2022/01/11 05:38:21;;;;;;;;;;;;;;;0.02;100.00;102971.78;5078621;28;19925;-81
2022/01/11 05:40:47;;;;;;;;;;;;;;;0.02;100.00;102973.41;5082502;28;19924;-82
2022/01/11 05:43:14;;;;;;;;;;;;;;;-0.01;100.00;102977.53;5063001;28;19920;-84
2022/01/11 05:45:42;;;;;;;;;;;;;;;-0.01;100.00;102972.34;5079642;28;20241;-82
2022/01/11 05:48:09;;;;;;;;;;;;;;;-0.01;100.00;102974.94;5061828;28;19924;-82
2022/01/11 05:50:35;;;;;;;;;;;;;;;-0.01;100.00;102977.53;5096755;28;19920;-82
2022/01/11 05:53:01;;;;;;;;;;;;;;;-0.02;100.00;102978.28;5062432;28;19920;-84
2022/01/11 05:55:26;;;;;;;;;;;;;;;-0.01;100.00;102979.19;5061898;28;19955;-83
2022/01/11 05:57:52;;;;;;;;;;;;;;;0.03;100.00;102975.28;5062367;28;19920;-83
2022/01/11 06:00:18;;;;;;;;;;;;;;;0.02;100.00;102979.53;5061619;28;20011;-84
2022/01/11 06:02:52;;;;;;;;;;;;;;;0.02;100.00;102976.00;5061618;28;19920;-83
2022/01/11 06:05:18;;;;;;;;;;;;;;;-0.02;100.00;102975.69;5059514;28;20327;-84
2022/01/11 06:07:45;;;;;;;;;;;;;;;-0.01;100.00;102974.94;5094044;28;19924;-83
2022/01/11 06:10:12;;;;;;;;;;;;;;;0.01;100.00;102979.38;5060237;28;20527;-82
2022/01/11 06:12:38;;;;;;;;;;;;;;;0.01;100.00;102981.97;5095340;28;19958;-83
2022/01/11 06:15:04;;;;;;;;;;;;;;;0.03;100.00;102975.28;5061209;28;19925;-83
2022/01/11 06:17:29;;;;;;;;;;;;;;;0.01;100.00;102969.00;5060618;28;19920;-83
2022/01/11 06:19:55;;;;;;;;;;;;;;;-0.03;100.00;102966.06;5094191;28;19974;-82
2022/01/11 06:22:24;;;;;;;;;;;;;;;-0.03;100.00;102970.34;5096634;28;20272;-82
2022/01/11 06:24:51;;;;;;;;;;;;;;;-0.03;100.00;102966.06;5059251;28;20169;-84
2022/01/11 06:27:16;;;;;;;;;;;;;;;0.01;100.00;102976.78;5059767;28;19921;-82
2022/01/11 06:29:41;;;;;;;;;;;;;;;0.06;100.00;102980.78;5064368;28;20042;-83
2022/01/11 06:32:08;;;;;;;;;;;;;;;0.05;100.00;102981.53;5068883;28;19927;-87
2022/01/11 06:34:33;;;;;;;;;;;;;;;0.02;100.00;102984.72;5069894;28;20293;-84
2022/01/11 06:36:59;;;;;;;;;;;;;;;0.00;100.00;102983.66;5071260;28;19959;-86
2022/01/11 06:39:25;;;;;;;;;;;;;;;-0.04;100.00;102987.53;5046657;28;19970;-82
2022/01/11 06:41:51;;;;;;;;;;;;;;;-0.05;100.00;102983.13;5060639;28;19921;-84
2022/01/11 06:44:17;;;;;;;;;;;;;;;-0.03;100.00;102996.25;5077617;28;20385;-83
2022/01/11 06:46:42;;;;;;;;;;;;;;;-0.05;100.00;102996.06;5059698;28;20003;-83
2022/01/11 06:49:08;;;;;;;;;;;;;;;-0.03;100.00;102988.47;5078779;28;19951;-82
2022/01/11 06:51:35;;;;;;;;;;;;;;;0.05;100.00;102990.25;5060337;28;19920;-85
2022/01/11 06:54:01;;;;;;;;;;;;;;;0.10;100.00;102993.34;5095463;28;19921;-84
2022/01/11 06:56:26;;;;;;;;;;;;;;;0.09;100.00;102991.50;5062557;28;19920;-84
2022/01/11 06:58:51;;;;;;;;;;;;;;;0.08;100.00;102989.66;5061273;28;20607;-84
2022/01/11 07:01:17;;;;;;;;;;;;;;;0.15;100.00;102982.75;5077826;28;19973;-84
2022/01/11 07:03:42;;;;;;;;;;;;;;;0.15;100.00;102994.78;5079012;28;19920;-83
2022/01/11 07:06:07;;;;;;;;;;;;;;;0.14;100.00;102993.88;5060146;28;19920;-85
2022/01/11 07:08:33;;;;;;;;;;;;;;;0.14;100.00;103009.44;5061518;28;20359;-83
2022/01/11 07:10:59;;;;;;;;;;;;;;;0.15;100.00;103002.56;5060829;28;19928;-83
2022/01/11 07:13:28;;;;;;;;;;;;;;;0.13;100.00;103004.06;5061319;28;20361;-84
2022/01/11 07:15:53;;;;;;;;;;;;;;;0.16;100.00;103001.81;5064013;28;19928;-83
2022/01/11 07:18:18;;;;;;;;;;;;;;;0.16;100.00;103004.41;5062687;28;19924;-83
2022/01/11 07:20:43;;;;;;;;;;;;;;;0.16;100.00;103012.19;5060017;28;19928;-84
2022/01/11 07:23:14;;;;;;;;;;;;;;;0.18;100.00;103019.38;5059153;28;19931;-83
2022/01/11 07:25:39;;;;;;;;;;;;;;;0.17;100.00;103017.53;5061175;28;20011;-84
2022/01/11 07:28:05;;;;;;;;;;;;;;;0.19;100.00;103015.13;5045234;28;19967;-85
2022/01/11 07:30:30;;;;;;;;;;;;;;;0.16;100.00;103025.16;5064486;28;20266;-82
2022/01/11 07:32:57;;;;;;;;;;;;;;;0.15;100.00;103025.88;5064112;28;19984;-85
2022/01/11 07:35:23;;;;;;;;;;;;;;;0.12;100.00;103036.81;5059639;28;19920;-83
2022/01/11 07:37:49;;;;;;;;;;;;;;;0.07;100.00;103037.06;5061929;28;19924;-85
2022/01/11 07:40:14;;;;;;;;;;;;;;;0.04;100.00;103041.88;5080034;28;19920;-84
2022/01/11 07:42:39;;;;;;;;;;;;;;;-0.01;100.00;103046.53;5080205;28;19920;-84
2022/01/11 07:45:05;;;;;;;;;;;;;;;-0.03;100.00;103028.25;5064721;28;19946;-82
2022/01/11 07:47:30;;;;;;;;;;;;;;;-0.03;100.00;103032.50;5066332;28;20035;-82
2022/01/11 07:49:56;;;;;;;;;;;;;;;-0.05;100.00;103040.09;5081645;28;20455;-83
2022/01/11 07:52:21;;;;;;;;;;;;;;;-0.06;100.00;103034.75;5063892;28;19952;-84
2022/01/11 07:54:47;;;;;;;;;;;;;;;-0.08;100.00;103032.00;5073442;28;19921;-82
2022/01/11 07:57:12;;;;;;;;;;;;;;;-0.10;100.00;103041.22;5071221;28;19971;-81
2022/01/11 07:59:37;;;;;;;;;;;;;;;-0.11;100.00;103046.22;5069848;28;19936;-82
2022/01/11 08:02:03;;;;;;;;;;;;;;;-0.13;100.00;103046.06;5088392;28;19920;-83
2022/01/11 08:04:31;;;;;;;;;;;;;;;-0.13;100.00;103056.41;5066920;28;19924;-83
2022/01/11 08:06:56;;;;;;;;;;;;;;;-0.12;100.00;103053.09;5066066;28;19921;-82
2022/01/11 08:09:22;;;;;;;;;;;;;;;-0.12;100.00;103045.31;5065896;28;19935;-81
2022/01/11 08:11:49;;;;;;;;;;;;;;;-0.08;100.00;103052.72;5068777;28;20007;-83
2022/01/11 08:14:15;;;;;;;;;;;;;;;-0.11;100.00;103043.66;5073735;28;19927;-83
2022/01/11 08:16:40;;;;;;;;;;;;;;;-0.11;100.00;103041.06;5071416;28;19924;-84
2022/01/11 08:19:05;;;;;;;;;;;;;;;-0.12;100.00;103042.72;5075810;28;19984;-82
2022/01/11 08:21:30;;;;;;;;;;;;;;;-0.05;100.00;103044.34;5076216;28;19920;-82
2022/01/11 08:23:57;;;;;;;;;;;;;;;-0.05;100.00;103044.34;5068718;28;20350;-83
2022/01/11 08:26:22;;;;;;;;;;;;;;;-0.05;100.00;103050.47;5065179;28;20622;-82
2022/01/11 08:28:47;;;;;;;;;;;;;;;-0.07;100.00;103051.94;5063401;28;19921;-82
2022/01/11 08:31:14;;;;;;;;;;;;;;;-0.04;100.00;103061.75;5060426;28;19928;-82
2022/01/11 08:33:40;;;;;;;;;;;;;;;-0.03;100.00;103061.00;5062861;28;20463;-83
2022/01/11 08:36:06;;;;;;;;;;;;;;;-0.03;100.00;103063.59;5059964;28;19987;-83
2022/01/11 08:38:31;;;;;;;;;;;;;;;-0.01;100.00;103056.91;5065446;28;19927;-83
2022/01/11 08:40:56;;;;;;;;;;;;;;;0.04;100.00;103057.44;5064562;28;20058;-83
2022/01/11 08:43:23;;;;;;;;;;;;;;;0.08;100.00;103052.78;5063286;28;20368;-81
2022/01/11 08:45:50;;;;;;;;;;;;;;;0.10;100.00;103058.13;5077425;28;19924;-81
2022/01/11 08:48:15;;;;;;;;;;;;;;;0.16;100.00;103058.81;5062879;28;19967;-82
2022/01/11 08:50:41;;;;;;;;;;;;;;;0.14;100.00;103052.53;5063121;28;19924;-81
2022/01/11 08:53:08;;;;;;;;;;;;;;;0.20;100.00;103058.41;5062866;28;20001;-83
2022/01/11 08:55:34;;;;;;;;;;;;;;;0.17;100.00;103064.19;5060706;28;19920;-83
2022/01/11 08:57:59;;;;;;;;;;;;;;;0.20;100.00;103054.91;5061843;28;20065;-82
2022/01/11 09:00:26;;;;;;;;;;;;;;;0.18;100.00;103059.91;5062539;28;19920;-82
2022/01/11 09:02:54;;;;;;;;;;;;;;;0.17;100.00;103061.59;5081251;28;19920;-82
2022/01/11 09:05:21;;;;;;;;;;;;;;;0.20;100.00;103063.59;5068963;28;19997;-84
2022/01/11 09:07:46;;;;;;;;;;;;;;;0.17;100.00;103059.00;5064683;28;19959;-83
2022/01/11 09:10:12;;;;;;;;;;;;;;;0.21;100.00;103062.84;5062544;28;19920;-82
2022/01/11 09:12:39;;;;;;;;;;;;;;;0.24;100.00;103060.59;5062925;28;19916;-81
2022/01/11 09:15:07;;;;;;;;;;;;;;;0.25;100.00;103065.06;5064771;28;20515;-83
2022/01/11 09:17:33;;;;;;;;;;;;;;;0.26;100.00;103069.47;5062818;28;19944;-82
2022/01/11 09:19:58;;;;;;;;;;;;;;;0.32;100.00;103075.34;5047817;28;20522;-82
2022/01/11 09:22:26;;;;;;;;;;;;;;;0.34;100.00;103078.09;5078924;28;19921;-83
2022/01/11 09:24:51;;;;;;;;;;;;;;;0.38;100.00;103077.72;5080554;28;19916;-81
2022/01/11 09:27:16;;;;;;;;;;;;;;;0.33;100.00;103081.47;5061858;28;20188;-81
2022/01/11 09:29:43;;;;;;;;;;;;;;;0.31;100.00;103083.88;5061562;28;19964;-83
2022/01/11 09:32:09;;;;;;;;;;;;;;;0.33;100.00;103086.66;5061209;28;20421;-82
2022/01/11 09:34:39;;;;;;;;;;;;;;;0.33;100.00;103090.16;5062238;28;19998;-83
2022/01/11 09:37:04;;;;;;;;;;;;;;;0.34;100.00;103089.41;5061742;28;19978;-82
2022/01/11 09:39:30;;;;;;;;;;;;;;;0.41;100.00;103085.84;5079282;28;19920;-81
2022/01/11 09:42:01;;;;;;;;;;;;;;;0.42;100.00;103082.50;5061668;28;19921;-83
2022/01/11 09:44:27;;;;;;;;;;;;;;;0.44;100.00;103085.28;5080918;28;19920;-82
2022/01/11 09:46:52;;;;;;;;;;;;;;;0.45;100.00;103092.28;5065888;28;19927;-82
2022/01/11 09:49:18;;;;;;;;;;;;;;;0.43;100.00;103094.69;5083027;28;19927;-84
2022/01/11 09:51:44;;;;;;;;;;;;;;;0.47;100.00;103098.56;5065686;28;19921;-82
2022/01/11 09:54:12;;;;;;;;;;;;;;;0.46;100.00;103100.22;5063517;28;19924;-82
2022/01/11 09:56:38;;;;;;;;;;;;;;;0.42;100.00;103095.47;5062796;28;19965;-82
2022/01/11 09:59:04;;;;;;;;;;;;;;;0.40;100.00;103096.03;5081787;28;19920;-81
2022/01/11 10:01:30;;;;;;;;;;;;;;;0.37;100.00;103098.28;5070371;28;19934;-82
2022/01/11 10:04:04;;;;;;;;;;;;;;;0.38;100.00;103098.44;5065450;28;19921;-82
2022/01/11 10:06:30;;;;;;;;;;;;;;;0.38;100.00;103093.25;5067234;28;19924;-83
2022/01/11 10:09:07;;;;;;;;;;;;;;;0.42;100.00;103098.06;5083842;28;19966;-83
2022/01/11 10:11:37;;;;;;;;;;;;;;;0.41;100.00;103100.47;5064195;28;19924;-82
2022/01/11 10:14:32;;;;;;;;;;;;;;;0.42;100.00;103089.34;5065584;28;19956;-82
2022/01/11 10:17:09;;;;;;;;;;;;;;;0.46;100.00;103087.25;5062301;28;19920;-83
2022/01/11 10:19:36;;;;;;;;;;;;;;;0.53;100.00;103095.00;5062426;28;19920;-83
2022/01/11 10:22:10;;;;;;;;;;;;;;;0.60;100.00;103096.59;5080583;28;20027;-83
2022/01/11 10:24:45;;;;;;;;;;;;;;;0.70;100.00;103093.38;5063258;28;19959;-83
2022/01/11 10:27:16;;;;;;;;;;;;;;;0.77;100.00;103089.78;5064064;28;19921;-82
2022/01/11 10:29:43;;;;;;;;;;;;;;;0.81;100.00;103095.47;5063150;28;19973;-84
2022/01/11 10:32:13;;;;;;;;;;;;;;;0.82;100.00;103101.59;5062810;28;19928;-84
2022/01/11 10:34:38;;;;;;;;;;;;;;;0.81;100.00;103104.91;5060096;28;19921;-83
2022/01/11 10:37:04;;;;;;;;;;;;;;;0.81;100.00;103107.50;5067057;28;19927;-83
2022/01/11 10:39:35;;;;;;;;;;;;;;;0.83;100.00;103111.22;5068182;28;19927;-83
2022/01/11 10:42:03;;;;;;;;;;;;;;;0.84;100.00;103116.56;5066691;28;19920;-83
2022/01/11 10:44:44;;;;;;;;;;;;;;;0.82;100.00;103120.66;5065549;28;19932;-82
2022/01/11 10:47:15;;;;;;;;;;;;;;;0.82;100.00;103132.72;5065585;28;19971;-84
2022/01/11 10:49:41;;;;;;;;;;;;;;;0.88;100.00;103134.31;5066714;28;19921;-83
2022/01/11 10:52:17;;;;;;;;;;;;;;;0.98;100.00;103131.09;5063500;28;19995;-83
2022/01/11 10:54:43;;;;;;;;;;;;;;;1.12;100.00;103136.88;5066658;28;19920;-82
2022/01/11 10:57:15;;;;;;;;;;;;;;;1.18;100.00;103137.53;5067665;28;20276;-83
2022/01/11 10:59:40;;;;;;;;;;;;;;;1.29;100.00;103134.47;5085298;28;19950;-82
2022/01/11 11:02:11;;;;;;;;;;;;;;;1.37;100.00;103131.03;5069343;28;19960;-85
2022/01/11 11:04:38;;;;;;;;;;;;;;;1.52;100.00;103128.25;5066216;28;19931;-83
2022/01/11 11:07:13;;;;;;;;;;;;;;;1.58;100.00;103118.53;5065558;28;20355;-84
2022/01/11 11:09:46;;;;;;;;;;;;;;;1.69;100.00;103130.09;5064075;28;19977;-83
2022/01/11 11:12:23;;;;;;;;;;;;;;;1.76;100.00;103125.72;5063705;28;20138;-83
2022/01/11 11:14:53;;;;;;;;;;;;;;;1.82;100.00;103116.75;5063460;28;19920;-84
2022/01/11 11:17:37;;;;;;;;;;;;;;;1.93;100.00;103124.94;5066088;28;19955;-85
2022/01/11 11:20:06;;;;;;;;;;;;;;;2.02;100.00;103134.47;5059507;28;19924;-84
2022/01/11 11:22:35;;;;;;;;;;;;;;;2.02;100.00;103134.47;5059550;28;19920;-84
2022/01/11 11:25:03;;;;;;;;;;;;;;;2.08;100.00;103146.47;5064165;28;21862;-84
2022/01/11 11:27:31;;;;;;;;;;;;;;;2.12;100.00;103138.22;5060357;28;19963;-83
2022/01/11 11:29:57;;;;;;;;;;;;;;;2.24;100.00;103143.81;5062778;28;19927;-84
2022/01/11 11:32:23;;;;;;;;;;;;;;;2.28;100.00;103145.97;5080635;28;19931;-83
2022/01/11 11:34:49;;;;;;;;;;;;;;;2.30;100.00;103149.69;5061360;28;20011;-84
2022/01/11 11:37:27;;;;;;;;;;;;;;;2.36;100.00;103153.69;5046178;28;19924;-84
2022/01/11 11:39:58;;;;;;;;;;;;;;;2.36;100.00;103157.19;5057383;28;19962;-85
2022/01/11 11:42:25;;;;;;;;;;;;;;;2.38;100.00;103155.69;5060265;28;19948;-83
2022/01/11 11:44:50;;;;;;;;;;;;;;;2.49;100.00;103160.34;5062006;28;19924;-83
2022/01/11 11:47:26;;;;;;;;;;;;;;;2.55;100.00;103166.94;5061320;28;19948;-84
2022/01/11 11:49:53;;;;;;;;;;;;;;;2.59;100.00;103159.63;5071538;28;19921;-82
2022/01/11 11:52:20;;;;;;;;;;;;;;;2.73;100.00;103173.16;5068667;28;19980;-84
2022/01/11 11:54:49;;;;;;;;;;;;;;;2.77;100.00;103181.47;5065795;28;19920;-83
2022/01/11 11:57:15;;;;;;;;;;;;;;;2.95;100.00;103179.88;5062830;28;20628;-84
2022/01/11 11:59:48;;;;;;;;;;;;;;;2.94;100.00;103171.91;5078997;28;20003;-84
2022/01/11 12:02:29;;;;;;;;;;;;;;;3.05;100.00;103176.53;5056164;28;19921;-85
2022/01/11 12:04:54;;;;;;;;;;;;;;;3.14;100.00;103171.31;5058536;28;19927;-83
2022/01/11 12:07:25;;;;;;;;;;;;;;;3.16;100.00;103165.53;5056730;28;19925;-82
2022/01/11 12:09:51;;;;;;;;;;;;;;;3.27;100.00;103155.31;5057921;28;19921;-83
2022/01/11 12:12:22;;;;;;;;;;;;;;;3.26;100.00;103158.66;5057694;28;19928;-84
2022/01/11 12:14:47;;;;;;;;;;;;;;;3.30;100.00;103163.44;5059104;28;19928;-84
2022/01/11 12:17:17;;;;;;;;;;;;;;;3.30;100.00;103164.34;5058483;28;20374;-83
2022/01/11 12:19:42;;;;;;;;;;;;;;;3.16;100.00;103152.50;5058159;28;19921;-84
2022/01/11 12:22:08;;;;;;;;;;;;;;;3.16;100.00;103151.59;5057067;28;19921;-84
2022/01/11 12:24:35;;;;;;;;;;;;;;;3.12;100.00;103152.94;5057505;28;20004;-83
2022/01/11 12:27:00;;;;;;;;;;;;;;;3.07;100.00;103156.75;5056322;28;19927;-83
2022/01/11 12:29:26;;;;;;;;;;;;;;;3.04;100.00;103156.44;5055237;28;19920;-84
2022/01/11 12:31:51;;;;;;;;;;;;;;;3.04;100.00;103153.84;5055140;28;20003;-82
2022/01/11 12:34:17;;;;;;;;;;;;;;;2.99;100.00;103153.38;5056274;28;19959;-83
2022/01/11 12:36:48;;;;;;;;;;;;;;;2.96;100.00;103153.06;5055422;28;19924;-81
2022/01/11 12:39:13;;;;;;;;;;;;;;;3.00;100.00;103155.22;5055304;28;19949;-82
2022/01/11 12:41:38;;;;;;;;;;;;;;;3.11;100.00;103152.78;5055365;28;20011;-81